Time;durP1;ratioP1;P1;durP2;ratioP2;P2;SDS_P1;SDS_P2;PMS_P1;PMS_P2;Temp;Humidity;BMP_temperature;BMP_pressure;BME280_temperature;BME280_humidity;BME280_pressure;Samples;Min_cycle;Max_cycle;Signal;HPM_P1;HPM_P2
2023/01/30 00:01:05;;;;;;;12.73;3.05;;;6.70;99.90;;;;;;5118981;28;20059;-65
2023/01/30 00:03:33;;;;;;;8.70;2.65;;;6.70;99.90;;;;;;5088789;28;20056;-64
2023/01/30 00:06:00;;;;;;;7.25;2.75;;;6.70;99.90;;;;;;5115217;28;20023;-65
2023/01/30 00:08:28;;;;;;;7.03;2.47;;;6.70;99.90;;;;;;5132180;28;20055;-63
2023/01/30 00:10:55;;;;;;;3.97;1.92;;;6.70;99.90;;;;;;5137976;28;20380;-63
2023/01/30 00:13:21;;;;;;;7.15;2.45;;;6.70;99.90;;;;;;5134143;28;20036;-64
2023/01/30 00:15:48;;;;;;;4.75;1.95;;;6.70;99.90;;;;;;5102983;28;20028;-64
2023/01/30 00:18:16;;;;;;;7.47;2.42;;;6.70;99.90;;;;;;5120298;28;20039;-65
2023/01/30 00:20:43;;;;;;;6.15;2.38;;;6.70;99.90;;;;;;5090757;28;20047;-63
2023/01/30 00:23:10;;;;;;;14.73;2.38;;;6.70;99.90;;;;;;5117385;28;20095;-64
2023/01/30 00:25:36;;;;;;;6.43;2.45;;;6.70;99.90;;;;;;5109450;28;20065;-64
2023/01/30 00:28:03;;;;;;;3.65;1.77;;;6.70;99.90;;;;;;5115577;28;20062;-64
2023/01/30 00:30:30;;;;;;;7.65;2.35;;;6.70;99.90;;;;;;5088942;28;20112;-64
2023/01/30 00:32:57;;;;;;;7.22;2.67;;;6.70;99.90;;;;;;5136049;28;20055;-64
2023/01/30 00:35:27;;;;;;;10.75;4.22;;;6.70;99.90;;;;;;5129232;28;20055;-64
2023/01/30 00:37:57;;;;;;;4.93;2.25;;;6.70;99.90;;;;;;5115606;28;20041;-64
2023/01/30 00:40:24;;;;;;;6.05;2.65;;;6.70;99.90;;;;;;5121358;28;20048;-64
2023/01/30 00:48:28;;;;;;;5.65;2.10;;;6.80;99.90;;;;;;5106954;28;20036;-65
2023/01/30 00:50:54;;;;;;;7.30;2.30;;;6.80;99.90;;;;;;5130812;28;20034;-64
2023/01/30 00:53:21;;;;;;;11.18;2.63;;;6.80;99.90;;;;;;5136926;28;20039;-64
2023/01/30 00:55:53;;;;;;;6.90;2.35;;;6.90;99.90;;;;;;5108781;28;20028;-64
2023/01/30 00:58:20;;;;;;;9.10;2.05;;;6.90;99.90;;;;;;5135878;28;20070;-64
2023/01/30 01:00:47;;;;;;;11.15;2.53;;;7.00;99.90;;;;;;5118134;28;20050;-64
2023/01/30 01:03:14;;;;;;;5.05;1.67;;;6.90;99.90;;;;;;5119941;28;20107;-65
2023/01/30 01:05:42;;;;;;;3.80;1.95;;;6.90;99.90;;;;;;5121195;28;20269;-64
2023/01/30 01:08:09;;;;;;;8.93;2.38;;;6.90;99.90;;;;;;5113368;28;20039;-64
2023/01/30 01:10:36;;;;;;;5.53;1.63;;;7.00;99.90;;;;;;5117733;28;20103;-64
2023/01/30 01:13:02;;;;;;;5.10;1.90;;;7.00;99.90;;;;;;5106154;28;20070;-64
2023/01/30 01:15:29;;;;;;;8.50;1.80;;;7.00;99.90;;;;;;5104600;28;20040;-64
2023/01/30 01:17:56;;;;;;;9.45;1.83;;;7.00;99.90;;;;;;5099244;28;20052;-63
2023/01/30 01:20:23;;;;;;;7.25;1.88;;;7.10;99.90;;;;;;5116228;28;20084;-64
2023/01/30 01:22:54;;;;;;;4.28;1.38;;;7.10;99.90;;;;;;5126154;28;20052;-64
2023/01/30 01:25:21;;;;;;;10.13;2.65;;;7.10;99.90;;;;;;5115741;28;20027;-64
2023/01/30 01:27:48;;;;;;;6.10;1.67;;;7.10;99.90;;;;;;5122669;28;20153;-64
2023/01/30 01:30:15;;;;;;;14.75;1.95;;;7.10;99.90;;;;;;5100776;28;20043;-63
2023/01/30 01:32:43;;;;;;;6.53;1.65;;;7.10;99.90;;;;;;5111446;28;20078;-64
2023/01/30 01:35:10;;;;;;;4.60;1.70;;;7.10;99.90;;;;;;5136264;28;20032;-65
2023/01/30 01:37:36;;;;;;;7.47;1.77;;;7.10;99.90;;;;;;5115190;28;20061;-64
2023/01/30 01:42:50;;;;;;;8.25;2.53;;;7.10;99.90;;;;;;5121094;28;20048;-64
2023/01/30 01:45:23;;;;;;;6.75;2.20;;;7.10;99.90;;;;;;5136418;28;20045;-64
2023/01/30 01:48:11;;;;;;;3.75;1.70;;;7.20;99.90;;;;;;5129974;28;20047;-65
2023/01/30 01:50:48;;;;;;;7.97;1.88;;;7.20;99.90;;;;;;5099304;28;20051;-65
2023/01/30 01:53:18;;;;;;;4.28;1.35;;;7.30;99.90;;;;;;5096919;28;20099;-66
2023/01/30 01:55:45;;;;;;;7.72;1.60;;;7.30;99.90;;;;;;5081872;28;20052;-65
2023/01/30 01:58:42;;;;;;;10.48;2.67;;;7.30;99.90;;;;;;5110628;28;20031;-64
2023/01/30 02:01:08;;;;;;;4.03;1.70;;;7.30;99.90;;;;;;5096946;28;20043;-65
2023/01/30 02:03:38;;;;;;;7.70;2.53;;;7.40;99.90;;;;;;5127974;28;20020;-65
2023/01/30 02:06:05;;;;;;;7.50;1.48;;;7.30;99.90;;;;;;5098685;28;20075;-64
2023/01/30 02:08:35;;;;;;;9.25;2.00;;;7.30;99.90;;;;;;5113594;28;20100;-64
2023/01/30 02:11:21;;;;;;;6.72;1.67;;;7.30;99.90;;;;;;5096472;28;20052;-64
2023/01/30 02:13:49;;;;;;;6.15;1.60;;;7.30;99.90;;;;;;5110947;28;20054;-64
2023/01/30 02:16:16;;;;;;;9.98;2.38;;;7.30;99.90;;;;;;5104325;28;20024;-64
2023/01/30 02:18:43;;;;;;;11.50;2.10;;;7.30;99.90;;;;;;5084353;28;20036;-65
2023/01/30 02:21:44;;;;;;;3.95;1.48;;;7.30;99.90;;;;;;5081745;28;20155;-64
2023/01/30 02:24:16;;;;;;;11.48;2.45;;;7.30;99.90;;;;;;5105307;28;20036;-64
2023/01/30 02:26:53;;;;;;;7.57;1.95;;;7.20;99.90;;;;;;5135992;28;20036;-64
2023/01/30 02:29:42;;;;;;;9.00;2.10;;;7.20;99.90;;;;;;5106022;28;20096;-64
2023/01/30 02:32:24;;;;;;;6.60;2.85;;;7.20;99.90;;;;;;5135434;28;20048;-64
2023/01/30 02:35:12;;;;;;;3.55;1.45;;;7.20;99.90;;;;;;5130764;28;20040;-64
2023/01/30 02:37:47;;;;;;;7.68;1.45;;;7.20;99.90;;;;;;5118878;28;20162;-64
2023/01/30 02:40:27;;;;;;;5.47;1.55;;;7.30;99.90;;;;;;5133526;28;20050;-64
2023/01/30 02:43:03;;;;;;;6.63;1.77;;;7.30;99.90;;;;;;5117421;28;20040;-64
2023/01/30 02:45:42;;;;;;;5.35;1.73;;;7.20;99.90;;;;;;5111131;28;20055;-64
2023/01/30 02:48:10;;;;;;;8.02;1.48;;;7.20;99.90;;;;;;5098140;28;20100;-64
2023/01/30 02:50:42;;;;;;;11.23;2.17;;;7.20;99.90;;;;;;5096009;28;20088;-64
2023/01/30 02:53:09;;;;;;;12.85;1.98;;;7.20;99.90;;;;;;5108717;28;20247;-65
2023/01/30 02:55:41;;;;;;;5.57;1.50;;;7.30;99.90;;;;;;5097588;28;20035;-64
2023/01/30 02:58:08;;;;;;;4.15;1.75;;;7.30;99.90;;;;;;5116041;28;20133;-64
2023/01/30 03:00:44;;;;;;;6.57;1.80;;;7.30;99.90;;;;;;5109884;28;20091;-64
2023/01/30 03:03:48;;;;;;;3.83;1.30;;;7.30;99.90;;;;;;5123945;28;20051;-65
2023/01/30 03:06:18;;;;;;;3.73;2.17;;;7.40;99.90;;;;;;5123198;28;20067;-64
2023/01/30 03:09:06;;;;;;;5.85;1.65;;;7.40;99.90;;;;;;5133353;28;20566;-65
2023/01/30 03:11:44;;;;;;;6.43;1.95;;;7.50;99.90;;;;;;5124447;28;20036;-64
2023/01/30 03:14:19;;;;;;;10.63;2.33;;;7.50;99.90;;;;;;5116486;28;20023;-64
2023/01/30 03:16:46;;;;;;;10.15;2.28;;;7.50;99.90;;;;;;5094019;28;20066;-64
2023/01/30 03:19:13;;;;;;;4.70;1.77;;;7.50;99.90;;;;;;5121164;28;20056;-64
2023/01/30 03:21:41;;;;;;;6.90;1.85;;;7.50;99.90;;;;;;5123668;28;20095;-64
2023/01/30 03:24:08;;;;;;;7.50;2.20;;;7.50;99.90;;;;;;5115562;28;20066;-64
2023/01/30 03:26:35;;;;;;;9.00;2.28;;;7.40;99.90;;;;;;5131287;28;20087;-64
2023/01/30 03:29:02;;;;;;;6.90;1.48;;;7.40;99.90;;;;;;5116947;28;20096;-64
2023/01/30 03:31:29;;;;;;;7.47;2.30;;;7.50;99.90;;;;;;5112352;28;20099;-64
2023/01/30 03:33:56;;;;;;;11.40;3.60;;;7.50;99.90;;;;;;5134584;28;20059;-64
2023/01/30 03:36:22;;;;;;;13.55;2.28;;;7.40;99.90;;;;;;5114501;28;20091;-64
2023/01/30 03:38:50;;;;;;;6.63;2.03;;;7.40;99.90;;;;;;5080390;28;20040;-64
2023/01/30 03:41:17;;;;;;;8.98;3.78;;;7.40;99.90;;;;;;5111403;28;20095;-64
2023/01/30 03:43:44;;;;;;;5.50;1.67;;;7.40;99.90;;;;;;5115575;28;20099;-64
2023/01/30 03:46:10;;;;;;;6.32;2.65;;;7.30;99.90;;;;;;5122292;28;20087;-65
2023/01/30 03:48:37;;;;;;;7.40;1.90;;;7.30;99.90;;;;;;5110958;28;20035;-64
2023/01/30 03:51:04;;;;;;;9.32;2.05;;;7.30;99.90;;;;;;5115273;28;20083;-64
2023/01/30 03:53:31;;;;;;;11.93;2.47;;;7.30;99.90;;;;;;5120131;28;20040;-64
2023/01/30 03:55:58;;;;;;;11.82;1.80;;;7.30;99.90;;;;;;5118338;28;20044;-63
2023/01/30 03:58:24;;;;;;;10.18;2.47;;;7.30;99.90;;;;;;5108589;28;20062;-65
2023/01/30 04:00:51;;;;;;;9.43;2.28;;;7.30;99.90;;;;;;5115709;28;20031;-64
2023/01/30 04:03:18;;;;;;;6.68;2.17;;;7.30;99.90;;;;;;5124182;28;20036;-63
2023/01/30 04:05:45;;;;;;;6.88;1.92;;;7.30;99.90;;;;;;5114122;28;20051;-65
2023/01/30 04:08:11;;;;;;;8.55;1.98;;;7.30;99.90;;;;;;5100165;28;20095;-64
2023/01/30 04:10:38;;;;;;;12.63;2.10;;;7.30;99.90;;;;;;5118502;28;20048;-64
2023/01/30 04:13:05;;;;;;;6.88;2.15;;;7.30;99.90;;;;;;5130224;28;20078;-64
2023/01/30 04:15:31;;;;;;;10.95;1.92;;;7.30;99.90;;;;;;5137920;28;20070;-64
2023/01/30 04:17:58;;;;;;;11.70;1.95;;;7.30;99.90;;;;;;5125126;28;20075;-64
2023/01/30 04:20:25;;;;;;;7.05;2.85;;;7.30;99.90;;;;;;5137914;28;20044;-64
2023/01/30 04:22:54;;;;;;;5.55;2.00;;;7.30;99.90;;;;;;5107168;28;20035;-65
2023/01/30 04:25:21;;;;;;;17.20;4.15;;;7.30;99.90;;;;;;5103982;28;20027;-65
2023/01/30 04:27:47;;;;;;;7.28;2.08;;;7.30;99.90;;;;;;5108973;28;20107;-63
2023/01/30 04:30:14;;;;;;;12.32;2.58;;;7.30;99.90;;;;;;5118102;28;20058;-64
2023/01/30 04:32:41;;;;;;;7.57;2.38;;;7.30;99.90;;;;;;5111537;28;20039;-64
2023/01/30 04:35:08;;;;;;;6.93;2.10;;;7.30;99.90;;;;;;5085165;28;20028;-63
2023/01/30 04:37:35;;;;;;;8.38;1.67;;;7.40;99.90;;;;;;5122692;28;20027;-64
2023/01/30 04:40:02;;;;;;;6.88;1.77;;;7.40;99.90;;;;;;5119242;28;20119;-64
2023/01/30 04:42:28;;;;;;;6.22;1.90;;;7.40;99.90;;;;;;5131808;28;20059;-63
2023/01/30 04:44:55;;;;;;;5.97;2.22;;;7.40;99.90;;;;;;5137458;28;20070;-64
2023/01/30 04:47:22;;;;;;;5.30;1.63;;;7.50;99.90;;;;;;5134330;28;20040;-65
2023/01/30 04:49:49;;;;;;;13.95;3.35;;;7.50;99.90;;;;;;5126425;28;20046;-64
2023/01/30 04:52:15;;;;;;;14.52;1.77;;;7.50;99.90;;;;;;5134882;28;20067;-64
2023/01/30 04:54:42;;;;;;;5.32;1.70;;;7.50;99.90;;;;;;5135362;28;20043;-64
2023/01/30 04:57:09;;;;;;;3.05;1.73;;;7.50;99.90;;;;;;5118664;28;20191;-63
2023/01/30 04:59:36;;;;;;;7.72;2.03;;;7.50;99.90;;;;;;5108008;28;20122;-63
2023/01/30 05:02:02;;;;;;;9.13;2.42;;;7.50;99.90;;;;;;5136667;28;20119;-63
2023/01/30 05:04:29;;;;;;;10.55;2.92;;;7.50;99.90;;;;;;5117326;28;20031;-63
2023/01/30 05:06:56;;;;;;;12.45;1.77;;;7.50;99.90;;;;;;5119044;28;20078;-63
2023/01/30 05:09:22;;;;;;;9.15;2.15;;;7.50;99.90;;;;;;5122597;28;20095;-64
2023/01/30 05:11:49;;;;;;;6.95;2.50;;;7.50;99.90;;;;;;5115931;28;20028;-64
2023/01/30 05:14:16;;;;;;;6.35;1.75;;;7.50;99.90;;;;;;5113706;28;20107;-64
2023/01/30 05:16:43;;;;;;;4.38;1.85;;;7.50;99.90;;;;;;5119579;28;20183;-64
2023/01/30 05:19:11;;;;;;;4.40;1.95;;;7.40;99.90;;;;;;5110731;28;20134;-64
2023/01/30 05:21:37;;;;;;;6.43;2.47;;;7.50;99.90;;;;;;5114551;28;20055;-64
2023/01/30 05:24:04;;;;;;;8.70;2.17;;;7.40;99.90;;;;;;5113718;28;20123;-63
2023/01/30 05:26:31;;;;;;;10.45;2.15;;;7.40;99.90;;;;;;5112089;28;20126;-63
2023/01/30 05:28:58;;;;;;;8.70;1.70;;;7.40;99.90;;;;;;5131054;28;20069;-63
2023/01/30 05:31:25;;;;;;;4.75;1.50;;;7.40;99.90;;;;;;5135851;28;20043;-63
2023/01/30 05:33:52;;;;;;;6.90;1.98;;;7.40;99.90;;;;;;5132753;28;20039;-62
2023/01/30 05:36:20;;;;;;;3.65;1.80;;;7.40;99.90;;;;;;5124313;28;20031;-64
2023/01/30 05:38:46;;;;;;;8.88;2.17;;;7.30;99.90;;;;;;5133181;28;20032;-64
2023/01/30 05:41:14;;;;;;;6.20;3.22;;;7.40;99.90;;;;;;5093045;28;20032;-64
2023/01/30 05:43:41;;;;;;;10.55;3.97;;;7.30;99.90;;;;;;5066221;28;20024;-64
2023/01/30 05:46:09;;;;;;;6.05;2.10;;;7.30;99.90;;;;;;5132188;28;20126;-63
2023/01/30 05:48:36;;;;;;;5.43;2.95;;;7.20;99.90;;;;;;5118956;28;20047;-65
2023/01/30 05:51:02;;;;;;;13.18;3.53;;;7.20;99.90;;;;;;5106608;28;20100;-65
2023/01/30 05:53:30;;;;;;;8.88;2.40;;;7.20;99.90;;;;;;5119132;28;20023;-63
2023/01/30 05:55:58;;;;;;;4.90;2.35;;;7.10;99.90;;;;;;5122413;28;20059;-65
2023/01/30 05:58:25;;;;;;;5.78;2.40;;;7.20;99.90;;;;;;5114730;28;20031;-64
2023/01/30 06:00:52;;;;;;;5.43;2.05;;;7.20;99.90;;;;;;5116228;28;20074;-64
2023/01/30 06:03:19;;;;;;;11.25;2.53;;;7.20;99.90;;;;;;5117670;28;20341;-63
2023/01/30 06:05:46;;;;;;;12.07;2.50;;;7.20;99.90;;;;;;5116661;28;20047;-63
2023/01/30 06:08:12;;;;;;;8.60;2.47;;;7.20;99.90;;;;;;5117350;28;20036;-64
2023/01/30 06:10:39;;;;;;;11.90;2.20;;;7.10;99.90;;;;;;5134009;28;20034;-63
2023/01/30 06:13:06;;;;;;;16.30;2.20;;;7.10;99.90;;;;;;5122084;28;20055;-64
2023/01/30 06:15:32;;;;;;;5.78;2.55;;;7.20;99.90;;;;;;5121563;28;20020;-64
2023/01/30 06:17:59;;;;;;;12.35;2.17;;;7.20;99.90;;;;;;5107091;28;20090;-63
2023/01/30 06:20:26;;;;;;;6.03;1.75;;;7.30;99.90;;;;;;5113832;28;20044;-63
2023/01/30 06:22:53;;;;;;;11.73;3.03;;;7.40;99.90;;;;;;5103519;28;20028;-63
2023/01/30 06:25:19;;;;;;;7.40;1.67;;;7.40;99.90;;;;;;5101965;28;20051;-63
2023/01/30 06:27:46;;;;;;;7.80;2.10;;;7.50;99.90;;;;;;5132716;28;20038;-63
2023/01/30 06:30:13;;;;;;;7.07;2.17;;;7.60;99.90;;;;;;5134551;28;20031;-65
2023/01/30 06:32:41;;;;;;;8.85;1.95;;;7.60;99.90;;;;;;5092550;28;20020;-65
2023/01/30 06:35:10;;;;;;;8.52;2.78;;;7.60;99.90;;;;;;5097900;28;20058;-65
2023/01/30 06:37:37;;;;;;;3.97;1.92;;;7.70;99.90;;;;;;5121322;28;20053;-64
2023/01/30 06:40:04;;;;;;;6.45;1.75;;;7.70;99.90;;;;;;5126504;28;20099;-65
2023/01/30 06:42:31;;;;;;;6.00;2.13;;;7.70;99.90;;;;;;5123921;28;20047;-64
2023/01/30 06:44:58;;;;;;;8.48;3.17;;;7.70;99.90;;;;;;5117028;28;20028;-64
2023/01/30 06:47:24;;;;;;;8.88;2.22;;;7.80;99.90;;;;;;5109013;28;20070;-64
2023/01/30 06:49:51;;;;;;;11.13;2.53;;;7.80;99.90;;;;;;5116776;28;20100;-63
2023/01/30 06:52:18;;;;;;;9.07;2.40;;;7.80;99.90;;;;;;5108401;28;20083;-64
2023/01/30 06:54:44;;;;;;;6.28;3.28;;;7.80;99.90;;;;;;5088135;28;20104;-65
2023/01/30 06:57:11;;;;;;;10.07;3.22;;;7.80;99.90;;;;;;5120703;28;20055;-65
2023/01/30 06:59:38;;;;;;;18.25;3.78;;;7.70;99.90;;;;;;5122687;28;20039;-63
2023/01/30 07:02:05;;;;;;;11.43;4.03;;;7.70;99.90;;;;;;5130464;28;20063;-64
2023/01/30 07:04:32;;;;;;;8.00;2.80;;;7.60;99.90;;;;;;5117208;28;20039;-64
2023/01/30 07:06:59;;;;;;;10.30;2.97;;;7.60;99.90;;;;;;5115172;28;20070;-63
2023/01/30 07:09:26;;;;;;;11.00;3.03;;;7.50;99.90;;;;;;5122952;28;20043;-63
2023/01/30 07:11:52;;;;;;;11.60;2.83;;;7.50;99.90;;;;;;5132356;28;20059;-65
2023/01/30 07:14:19;;;;;;;9.13;2.47;;;7.50;99.90;;;;;;5125211;28;20036;-64
2023/01/30 07:16:46;;;;;;;11.57;2.95;;;7.50;99.90;;;;;;5125774;28;20058;-64
2023/01/30 07:19:13;;;;;;;12.95;2.80;;;7.50;99.90;;;;;;5129020;28;20057;-63
2023/01/30 07:21:39;;;;;;;10.00;2.92;;;7.50;99.90;;;;;;5096447;28;20038;-64
2023/01/30 07:24:07;;;;;;;9.68;2.83;;;7.50;99.90;;;;;;5128095;28;20035;-64
2023/01/30 07:26:33;;;;;;;7.57;2.70;;;7.50;99.90;;;;;;5099879;28;20067;-64
2023/01/30 07:29:00;;;;;;;7.95;2.78;;;7.50;99.90;;;;;;5094670;28;20105;-64
2023/01/30 07:31:27;;;;;;;10.85;3.33;;;7.40;99.90;;;;;;5116616;28;20028;-68
2023/01/30 07:33:54;;;;;;;9.85;3.25;;;7.40;99.90;;;;;;5123802;28;20072;-64
2023/01/30 07:36:20;;;;;;;11.80;2.85;;;7.30;99.90;;;;;;5131372;28;20027;-64
2023/01/30 07:38:48;;;;;;;11.75;2.47;;;7.30;99.90;;;;;;5109227;28;20036;-64
2023/01/30 07:41:15;;;;;;;11.55;2.85;;;7.30;99.90;;;;;;5110332;28;20119;-64
2023/01/30 07:43:42;;;;;;;15.15;3.28;;;7.20;99.90;;;;;;5130002;28;20043;-65
2023/01/30 07:46:09;;;;;;;8.07;2.70;;;7.20;99.90;;;;;;5132758;28;20042;-63
2023/01/30 07:48:36;;;;;;;7.28;2.30;;;7.10;99.90;;;;;;5117307;28;20110;-64
2023/01/30 07:51:04;;;;;;;9.65;2.45;;;7.10;99.90;;;;;;5126609;28;20043;-63
2023/01/30 07:53:30;;;;;;;23.08;2.80;;;7.00;99.90;;;;;;5121292;28;20039;-64
2023/01/30 07:55:58;;;;;;;10.63;3.17;;;7.00;99.90;;;;;;5091383;28;20063;-63
2023/01/30 07:58:24;;;;;;;15.35;2.75;;;7.00;99.90;;;;;;5117789;28;20094;-63
2023/01/30 08:00:54;;;;;;;10.68;2.72;;;7.00;99.90;;;;;;5106728;28;20024;-64
2023/01/30 08:03:21;;;;;;;7.35;1.95;;;6.90;99.90;;;;;;5116341;28;20027;-64
2023/01/30 08:05:47;;;;;;;10.18;1.88;;;6.90;99.90;;;;;;5123832;28;20108;-63
2023/01/30 08:08:14;;;;;;;7.72;2.58;;;6.90;99.90;;;;;;5118943;28;20096;-65
2023/01/30 08:10:41;;;;;;;7.50;1.52;;;6.90;99.90;;;;;;5130194;28;20031;-64
2023/01/30 08:13:08;;;;;;;8.35;2.13;;;6.90;99.90;;;;;;5116830;28;20053;-65
2023/01/30 08:15:35;;;;;;;6.88;1.35;;;6.90;99.90;;;;;;5129938;28;20032;-64
2023/01/30 08:18:02;;;;;;;9.07;2.38;;;7.00;99.90;;;;;;5124017;28;20035;-64
2023/01/30 08:20:28;;;;;;;10.10;1.90;;;7.00;99.90;;;;;;5082579;28;20040;-64
2023/01/30 08:22:55;;;;;;;8.10;2.17;;;7.00;99.90;;;;;;5135059;28;20088;-64
2023/01/30 08:25:22;;;;;;;14.98;3.78;;;7.00;99.90;;;;;;5081689;28;20075;-64
2023/01/30 08:27:49;;;;;;;9.50;1.75;;;7.10;99.90;;;;;;5132411;28;20031;-63
2023/01/30 08:30:17;;;;;;;6.88;2.00;;;7.00;99.90;;;;;;5097592;28;20120;-64
2023/01/30 08:32:44;;;;;;;17.00;2.83;;;7.00;99.90;;;;;;5117503;28;20095;-64
2023/01/30 08:35:11;;;;;;;11.02;2.67;;;7.00;99.90;;;;;;5117174;28;20103;-65
2023/01/30 08:37:41;;;;;;;8.77;1.73;;;7.00;99.90;;;;;;5124735;28;20264;-64
2023/01/30 08:40:08;;;;;;;15.55;1.70;;;7.00;99.90;;;;;;5120659;28;20038;-64
2023/01/30 08:42:35;;;;;;;12.48;2.30;;;7.00;99.90;;;;;;5125398;28;20087;-64
2023/01/30 08:45:02;;;;;;;13.75;3.25;;;7.00;99.90;;;;;;5134838;28;20028;-64
2023/01/30 08:47:29;;;;;;;16.10;2.15;;;6.90;99.90;;;;;;5098306;28;20123;-64
2023/01/30 08:49:56;;;;;;;14.30;2.92;;;7.00;99.90;;;;;;5099599;28;20078;-65
2023/01/30 08:52:23;;;;;;;15.65;2.40;;;7.00;99.90;;;;;;5123171;28;20031;-63
2023/01/30 08:54:49;;;;;;;10.68;1.98;;;7.00;99.90;;;;;;5134125;28;20038;-63
2023/01/30 08:57:16;;;;;;;11.75;1.85;;;7.00;99.90;;;;;;5103889;28;20052;-63
2023/01/30 08:59:43;;;;;;;11.52;1.98;;;6.90;99.90;;;;;;5135027;28;20065;-64
2023/01/30 09:02:10;;;;;;;8.23;2.65;;;7.00;99.90;;;;;;5115111;28;20046;-64
2023/01/30 09:04:37;;;;;;;11.20;2.00;;;7.00;99.90;;;;;;5097349;28;20041;-64
2023/01/30 09:07:05;;;;;;;4.88;1.42;;;6.90;99.90;;;;;;5100986;28;20044;-64
2023/01/30 09:09:32;;;;;;;18.45;2.67;;;7.00;99.90;;;;;;5115961;28;20078;-66
2023/01/30 09:12:00;;;;;;;12.30;2.05;;;7.00;99.90;;;;;;5124698;28;20073;-64
2023/01/30 09:14:28;;;;;;;10.45;2.17;;;7.10;99.90;;;;;;5136568;28;20040;-64
2023/01/30 09:16:54;;;;;;;15.13;3.55;;;7.10;99.90;;;;;;5129267;28;20071;-64
2023/01/30 09:19:25;;;;;;;19.83;2.00;;;7.20;99.90;;;;;;5130209;28;20032;-64
2023/01/30 09:21:52;;;;;;;17.33;3.17;;;7.10;99.90;;;;;;5115446;28;20306;-64
2023/01/30 09:24:19;;;;;;;10.15;2.70;;;7.20;99.90;;;;;;5113789;28;20103;-64
2023/01/30 09:26:46;;;;;;;14.57;3.17;;;7.20;99.90;;;;;;5130527;28;20040;-64
2023/01/30 09:29:14;;;;;;;9.60;2.42;;;7.20;99.90;;;;;;5114790;28;20028;-63
2023/01/30 09:31:40;;;;;;;14.63;2.28;;;7.20;99.90;;;;;;5115657;28;20096;-64
2023/01/30 09:34:07;;;;;;;8.63;1.80;;;7.20;99.90;;;;;;5134454;28;20110;-64
2023/01/30 09:36:34;;;;;;;12.00;2.70;;;7.20;99.90;;;;;;5132697;28;20024;-63
2023/01/30 09:39:02;;;;;;;21.35;2.45;;;7.20;99.90;;;;;;5106335;28;20024;-64
2023/01/30 09:41:47;;;;;;;13.43;2.33;;;7.20;99.90;;;;;;5135557;28;20048;-66
2023/01/30 09:44:36;;;;;;;15.13;2.08;;;7.20;99.90;;;;;;5115371;28;20053;-64
2023/01/30 09:47:12;;;;;;;8.75;2.25;;;7.20;99.90;;;;;;5116427;28;20034;-64
2023/01/30 09:49:42;;;;;;;9.68;2.17;;;7.20;99.90;;;;;;5106481;28;20119;-64
2023/01/30 09:52:39;;;;;;;15.75;2.65;;;7.20;99.90;;;;;;5132877;28;20758;-66
2023/01/30 09:55:42;;;;;;;18.13;2.90;;;7.20;99.90;;;;;;5125710;28;20023;-64
2023/01/30 09:58:18;;;;;;;14.32;2.70;;;7.20;99.90;;;;;;5061115;28;20032;-65
2023/01/30 10:00:49;;;;;;;21.98;4.40;;;7.30;99.90;;;;;;5095398;28;20054;-65
2023/01/30 10:03:18;;;;;;;15.20;2.78;;;7.30;99.90;;;;;;5098138;28;20027;-65
2023/01/30 10:05:50;;;;;;;14.15;2.08;;;7.20;99.90;;;;;;5105400;28;20091;-65
2023/01/30 10:08:23;;;;;;;17.15;3.10;;;7.30;99.90;;;;;;5114577;28;20070;-65
2023/01/30 10:11:17;;;;;;;14.30;3.15;;;7.30;99.90;;;;;;5122959;28;20052;-65
2023/01/30 10:14:16;;;;;;;18.52;2.30;;;7.30;99.90;;;;;;5089530;28;20031;-66
2023/01/30 10:17:20;;;;;;;13.93;2.60;;;7.30;99.90;;;;;;5133470;28;20046;-64
2023/01/30 10:20:15;;;;;;;18.55;4.65;;;7.30;99.90;;;;;;5130606;28;20051;-65
2023/01/30 10:23:01;;;;;;;;;;;7.30;99.90;;;;;;5116642;28;20050;-65
2023/01/30 10:25:42;;;;;;;19.33;2.70;;;7.40;99.90;;;;;;5122278;28;19916;-66
2023/01/30 10:28:17;;;;;;;17.83;4.07;;;7.40;99.90;;;;;;5132856;28;20031;-64
2023/01/30 10:30:45;;;;;;;16.15;3.85;;;7.40;99.90;;;;;;5091117;28;20216;-64
2023/01/30 10:33:43;;;;;;;13.48;3.20;;;7.40;99.90;;;;;;5092584;28;20626;-65
2023/01/30 10:36:13;;;;;;;10.70;2.53;;;7.40;99.90;;;;;;5092132;28;20041;-66
2023/01/30 10:38:51;;;;;;;12.23;3.03;;;7.50;99.90;;;;;;5095529;28;20040;-65
2023/01/30 10:41:46;;;;;;;10.80;3.00;;;7.50;99.90;;;;;;5080568;28;20070;-64
2023/01/30 10:44:13;;;;;;;19.35;3.10;;;7.50;99.90;;;;;;5095861;28;20025;-64
2023/01/30 10:47:08;;;;;;;12.48;2.35;;;7.60;99.90;;;;;;5086660;28;20032;-64
2023/01/30 10:49:43;;;;;;;13.65;3.28;;;7.60;99.90;;;;;;5095335;28;20070;-64
2023/01/30 10:52:31;;;;;;;17.05;3.88;;;7.70;99.90;;;;;;5096774;28;20058;-65
2023/01/30 10:55:16;;;;;;;13.57;2.33;;;7.70;99.90;;;;;;5100405;28;20052;-64
2023/01/30 10:58:05;;;;;;;13.25;2.55;;;7.80;99.90;;;;;;5093154;28;20044;-65
2023/01/30 11:00:59;;;;;;;18.23;4.22;;;7.90;99.90;;;;;;5081014;28;20035;-65
2023/01/30 11:04:14;;;;;;;17.70;4.75;;;7.90;99.90;;;;;;5076778;28;20033;-64
2023/01/30 11:06:41;;;;;;;18.85;2.50;;;8.00;99.90;;;;;;5088392;28;20025;-65
2023/01/30 11:09:08;;;;;;;10.82;1.73;;;8.00;99.90;;;;;;5078767;28;20049;-65
2023/01/30 11:11:46;;;;;;;20.40;2.55;;;8.10;99.90;;;;;;5095631;28;20375;-65
2023/01/30 11:14:13;;;;;;;22.83;3.45;;;8.10;99.90;;;;;;5093750;28;20052;-64
2023/01/30 11:16:48;;;;;;;11.07;2.88;;;8.20;99.90;;;;;;5105395;28;20036;-64
2023/01/30 11:19:16;;;;;;;11.25;1.83;;;8.20;99.90;;;;;;5099723;28;20070;-65
2023/01/30 11:21:51;;;;;;;28.80;3.80;;;8.20;99.90;;;;;;5078946;28;20139;-64
2023/01/30 11:24:22;;;;;;;21.05;2.83;;;8.20;99.90;;;;;;5099207;28;20051;-64
2023/01/30 11:26:51;;;;;;;16.98;2.25;;;8.20;99.90;;;;;;5079474;28;20079;-65
2023/01/30 11:29:24;;;;;;;12.55;2.45;;;8.20;99.90;;;;;;5096402;28;20050;-64
2023/01/30 11:31:51;;;;;;;17.65;2.38;;;8.10;99.90;;;;;;5107867;28;20032;-65
2023/01/30 11:34:19;;;;;;;15.82;2.10;;;8.20;99.90;;;;;;5094836;28;20080;-64
2023/01/30 11:36:46;;;;;;;9.73;1.70;;;8.20;99.90;;;;;;5094960;28;20051;-65
2023/01/30 11:39:14;;;;;;;11.60;2.60;;;8.30;99.90;;;;;;5107113;28;20059;-65
2023/01/30 11:42:00;;;;;;;17.08;3.25;;;8.20;99.90;;;;;;5130657;28;20040;-64
2023/01/30 11:44:28;;;;;;;17.42;2.90;;;8.20;99.90;;;;;;5099892;28;20062;-64
2023/01/30 11:47:00;;;;;;;17.90;2.45;;;8.10;99.90;;;;;;5098136;28;20058;-65
2023/01/30 11:49:32;;;;;;;8.20;2.25;;;8.20;99.90;;;;;;5103254;28;20040;-64
2023/01/30 11:52:23;;;;;;;17.98;4.47;;;8.20;99.90;;;;;;5100191;28;20031;-64
2023/01/30 11:54:49;;;;;;;10.80;2.55;;;8.20;99.90;;;;;;5096140;28;20032;-64
2023/01/30 11:57:16;;;;;;;14.23;2.55;;;8.30;99.90;;;;;;5123753;28;20167;-63
2023/01/30 11:59:47;;;;;;;22.55;3.25;;;8.30;99.90;;;;;;5123584;28;20086;-64
2023/01/30 12:02:32;;;;;;;14.45;3.00;;;8.30;99.90;;;;;;5096852;28;20059;-64
2023/01/30 12:05:04;;;;;;;8.13;1.92;;;8.30;99.90;;;;;;5106135;28;20134;-64
2023/01/30 12:07:32;;;;;;;15.55;2.75;;;8.30;99.90;;;;;;5121472;28;20024;-64
2023/01/30 12:09:59;;;;;;;11.18;2.35;;;8.40;99.90;;;;;;5091523;28;20036;-65
2023/01/30 12:12:36;;;;;;;9.18;2.72;;;8.40;99.90;;;;;;5117947;28;20028;-62
2023/01/30 12:15:15;;;;;;;14.55;2.75;;;8.40;99.90;;;;;;5132829;28;20051;-64
2023/01/30 12:18:03;;;;;;;12.57;2.13;;;8.40;99.90;;;;;;5099055;28;20044;-64
2023/01/30 12:20:47;;;;;;;7.57;2.15;;;8.40;99.90;;;;;;5122492;28;20043;-65
2023/01/30 12:23:33;;;;;;;13.00;2.35;;;8.40;99.90;;;;;;5103557;28;20051;-66
2023/01/30 12:26:14;;;;;;;10.63;3.33;;;8.50;99.90;;;;;;5114291;28;20028;-64
2023/01/30 12:28:52;;;;;;;18.52;2.72;;;8.40;99.90;;;;;;5111529;28;20262;-63
2023/01/30 12:31:25;;;;;;;12.35;2.90;;;8.40;99.90;;;;;;5116346;28;20079;-63
2023/01/30 12:33:54;;;;;;;17.95;2.75;;;8.40;99.90;;;;;;5109070;28;20070;-64
2023/01/30 12:36:55;;;;;;;17.48;4.13;;;8.40;99.90;;;;;;5103040;28;20058;-63
2023/01/30 12:39:29;;;;;;;39.53;4.72;;;8.40;99.90;;;;;;5133370;28;20065;-64
2023/01/30 12:42:20;;;;;;;11.57;2.53;;;8.50;99.90;;;;;;5127193;28;20070;-64
2023/01/30 12:45:03;;;;;;;11.65;2.42;;;8.60;99.90;;;;;;5123357;28;20040;-64
2023/01/30 12:47:53;;;;;;;16.77;3.25;;;8.60;99.90;;;;;;5136284;28;20043;-64
2023/01/30 12:50:35;;;;;;;11.25;2.13;;;8.50;99.90;;;;;;5103550;28;20261;-63
2023/01/30 12:53:23;;;;;;;13.90;2.40;;;8.50;99.90;;;;;;5133849;28;20071;-64
2023/01/30 12:56:33;;;;;;;9.82;2.50;;;8.50;99.90;;;;;;5112371;28;20035;-64
2023/01/30 12:59:34;;;;;;;10.70;2.05;;;8.40;99.90;;;;;;5090433;28;20044;-65
2023/01/30 13:02:20;;;;;;;11.63;2.30;;;8.40;99.90;;;;;;5091771;28;20054;-65
2023/01/30 13:05:10;;;;;;;10.65;3.15;;;8.40;99.90;;;;;;5124109;28;20054;-66
2023/01/30 13:07:55;;;;;;;14.82;2.53;;;8.40;99.90;;;;;;5136255;28;20047;-64
2023/01/30 13:10:25;;;;;;;17.92;2.78;;;8.40;99.90;;;;;;5123321;28;20055;-67
2023/01/30 13:13:10;;;;;;;20.25;3.05;;;8.50;99.90;;;;;;5098298;28;20044;-65
2023/01/30 13:15:44;;;;;;;20.20;2.67;;;8.50;99.90;;;;;;5128775;28;20103;-65
2023/01/30 13:18:16;;;;;;;22.27;2.97;;;8.60;99.90;;;;;;5118806;28;20058;-65
2023/01/30 13:20:54;;;;;;;18.23;3.25;;;8.60;99.90;;;;;;5130932;28;20058;-65
2023/01/30 13:23:30;;;;;;;13.82;2.63;;;8.60;99.90;;;;;;5099405;28;20070;-64